Airfield :
LOGIN :

Register | Disclaimer

   EN    FR    IT 

 










Legend :    VFR   Marginal VFR   IFR   Intensive IFR   Very Intensive IFR
Visi :
Ceiling :
>= 8 km
>= 3000ft
5 to 8 km
1000 to 3000 ft
1500m to 5 km
500 to 1000 ft
800 to 1500m
200 to 500 ft
< 800m
< 200 ft
Symbols :   Thunderstorms  Fog  Heavy snow  Heavy precipitations  Wind > 20 kt
SIGMETs :     Misc.  Thunderstorms  Icing  Turbulence  Mountain Waves  Volcanic Ashes






- Airport Elevation : 915 ft
- IATA code : LUG


LSZA - Lugano

CURRENT METAR :
  • 140650Z AUTO 35004KT CAVOK 00/M02 Q1009

EXPIRED METARs :
  • 140620Z VRB01KT CAVOK M00/M01 Q1009 NOSIG
  • 140550Z AUTO VRB01KT CAVOK 00/M01 Q1009
  • 140520Z AUTO 02004KT CAVOK M01/M02 Q1009
  • 140450Z AUTO 02003KT CAVOK M00/M01 Q1009
  • 140420Z AUTO VRB01KT 9999 NSC M01/M01 Q1008
  • 140350Z AUTO VRB01KT CAVOK M00/M01 Q1008

TAF TAF LSZA
Valid from the 14 at 06:00 until the 14 at 15:00 UTC


140525Z 1406/1415 VRB03KT CAVOK
BECMG 1409/1411 9999 BKN070
ATIS : +41 22 417 40 88



MET'MAP, your aeronautical weather chart ! - Copyright ORBIFLY December 2007 - Disclaimer

ORBIFLY MET'MAP TEAM :

Programming & Development : Alexandra Zaïnal
Concept & Development : Baudouin d'Aumeries
Co-Development & Prog : Marc-Olivier Méhu
Technical & hardware support : Manuel Goepfert

Contact : metmap@orbifly.com




SOURCES & CREDITS :

   NOAA